createdAt,value
2018-07-09T00:02:48.051Z,18.30
2018-07-09T00:17:31.415Z,18.20
2018-07-09T00:22:26.237Z,18.00
2018-07-09T00:27:20.945Z,18.10
2018-07-09T00:32:15.647Z,18.00
2018-07-09T00:37:10.256Z,17.90
2018-07-09T00:42:05.055Z,17.90
2018-07-09T00:46:59.852Z,17.80
2018-07-09T00:51:54.583Z,17.60
2018-07-09T00:56:49.422Z,17.60
2018-07-09T01:01:44.117Z,17.60
2018-07-09T01:06:38.836Z,17.40
2018-07-09T01:11:46.316Z,17.20
2018-07-09T01:16:40.998Z,17.20
2018-07-09T01:21:35.748Z,17.30
2018-07-09T01:26:30.915Z,17.30
2018-07-09T01:31:25.643Z,17.10
2018-07-09T01:36:20.824Z,17.00
2018-07-09T01:41:15.526Z,16.90
2018-07-09T01:46:10.228Z,16.70
2018-07-09T01:51:05.022Z,16.80
2018-07-09T01:55:59.699Z,16.60
2018-07-09T02:00:54.391Z,16.70
2018-07-09T02:05:49.086Z,16.70
2018-07-09T02:10:43.786Z,16.60
2018-07-09T02:15:38.515Z,16.50
2018-07-09T02:20:33.221Z,16.50
2018-07-09T02:25:27.985Z,16.40
2018-07-09T02:30:22.634Z,16.10
2018-07-09T02:35:17.285Z,15.90
2018-07-09T02:40:11.938Z,15.90
2018-07-09T02:45:06.938Z,16.00
2018-07-09T02:50:01.604Z,16.10
2018-07-09T02:54:56.325Z,15.90
2018-07-09T02:59:50.995Z,16.20
2018-07-09T03:04:45.665Z,15.90
2018-07-09T03:09:40.309Z,15.80
2018-07-09T03:14:34.969Z,15.80
2018-07-09T03:19:29.689Z,15.80
2018-07-09T03:24:24.386Z,15.80
2018-07-09T03:29:19.026Z,15.80
2018-07-09T03:34:13.663Z,15.60
2018-07-09T03:39:08.268Z,15.60
2018-07-09T03:44:02.872Z,15.70
2018-07-09T03:48:57.525Z,15.50
2018-07-09T03:53:52.295Z,15.40
2018-07-09T03:58:46.917Z,15.60
2018-07-09T04:03:41.595Z,15.40
2018-07-09T04:08:36.217Z,15.40
2018-07-09T04:13:30.869Z,15.50
2018-07-09T04:18:26.092Z,15.70
2018-07-09T04:23:20.756Z,15.40
2018-07-09T04:28:15.562Z,15.30
2018-07-09T04:33:10.140Z,15.50
2018-07-09T04:38:04.774Z,15.60
2018-07-09T04:42:59.456Z,15.70
2018-07-09T04:47:54.247Z,15.90
2018-07-09T04:52:48.860Z,16.40
2018-07-09T04:57:43.547Z,16.60
2018-07-09T05:02:38.211Z,17.00
2018-07-09T05:07:32.846Z,17.40
2018-07-09T05:12:27.514Z,17.80
2018-07-09T05:17:22.170Z,18.30
2018-07-09T05:22:16.870Z,18.70
2018-07-09T05:27:11.516Z,19.20
2018-07-09T05:32:06.233Z,19.60
2018-07-09T05:37:00.922Z,20.00
2018-07-09T05:41:55.900Z,20.30
2018-07-09T05:46:51.537Z,20.50
2018-07-09T05:51:46.270Z,20.50
2018-07-09T05:56:41.039Z,20.00
2018-07-09T06:01:35.813Z,20.10
2018-07-09T06:06:30.520Z,20.00
2018-07-09T06:11:25.411Z,20.00
2018-07-09T06:16:20.054Z,19.80
2018-07-09T06:21:14.733Z,19.80
2018-07-09T06:26:09.445Z,19.70
2018-07-09T06:41:02.636Z,19.60
2018-07-09T06:45:57.671Z,19.70
2018-07-09T06:50:53.755Z,19.80
2018-07-09T06:55:48.624Z,20.00
2018-07-09T07:01:28.653Z,20.40
2018-07-09T07:06:23.425Z,20.60
2018-07-09T07:11:18.213Z,20.90
2018-07-09T07:16:13.188Z,21.30
2018-07-09T07:21:08.168Z,21.40
2018-07-09T07:26:02.989Z,21.80
2018-07-09T07:30:57.736Z,22.20
2018-07-09T07:35:53.263Z,22.50
2018-07-09T07:40:48.190Z,22.70
2018-07-09T07:46:17.379Z,22.90
2018-07-09T07:51:16.449Z,23.10
2018-07-09T07:56:11.817Z,22.80
2018-07-09T08:01:07.046Z,22.90
2018-07-09T08:06:02.087Z,23.10
2018-07-09T08:10:57.197Z,23.20
2018-07-09T08:15:52.407Z,23.40
2018-07-09T08:20:47.450Z,23.60
2018-07-09T08:25:42.743Z,23.90
2018-07-09T08:30:37.613Z,24.30
2018-07-09T08:35:32.735Z,24.20
2018-07-09T08:40:27.776Z,24.50
2018-07-09T08:45:23.021Z,24.80
2018-07-09T08:50:20.983Z,25.00
2018-07-09T08:55:15.885Z,25.20
2018-07-09T09:00:12.595Z,25.20
2018-07-09T09:05:07.503Z,25.00
2018-07-09T09:10:02.389Z,25.40
2018-07-09T09:14:57.435Z,25.70
2018-07-09T09:19:52.318Z,25.90
2018-07-09T09:24:47.464Z,26.10
2018-07-09T09:29:43.237Z,26.50
2018-07-09T09:39:32.901Z,26.50
2018-07-09T09:44:31.362Z,26.60
2018-07-09T09:49:26.691Z,27.00
2018-07-09T09:54:21.704Z,26.90
2018-07-09T09:59:16.841Z,26.90
2018-07-09T10:04:12.094Z,26.80
2018-07-09T10:09:08.203Z,26.80
2018-07-09T10:14:03.457Z,27.10
2018-07-09T10:18:58.750Z,27.30
2018-07-09T10:23:53.531Z,27.20
2018-07-09T10:28:48.509Z,27.50
2018-07-09T10:33:43.391Z,27.50
2018-07-09T10:38:38.308Z,27.50
2018-07-09T10:43:35.105Z,27.80
2018-07-09T10:48:30.080Z,27.90
2018-07-09T10:53:24.953Z,28.00
2018-07-09T10:58:20.036Z,28.00
2018-07-09T11:03:17.794Z,28.10
2018-07-09T11:08:12.599Z,28.10
2018-07-09T11:13:07.358Z,28.10
2018-07-09T11:18:04.811Z,27.90
2018-07-09T11:22:59.715Z,28.30
2018-07-09T11:28:00.871Z,28.40
2018-07-09T11:32:55.843Z,28.40
2018-07-09T11:37:50.681Z,28.30
2018-07-09T11:42:45.637Z,28.40
2018-07-09T11:47:41.360Z,28.20
2018-07-09T11:52:36.314Z,28.40
2018-07-09T11:57:34.343Z,28.50
2018-07-09T12:02:29.159Z,28.50
2018-07-09T12:07:24.072Z,28.70
2018-07-09T12:12:19.076Z,29.00
2018-07-09T12:17:13.915Z,28.80
2018-07-09T12:22:08.833Z,28.60
2018-07-09T12:27:03.703Z,28.70
2018-07-09T12:31:58.579Z,28.60
2018-07-09T12:36:53.389Z,28.60
2018-07-09T12:41:48.267Z,28.50
2018-07-09T12:46:43.701Z,28.20
2018-07-09T12:51:40.343Z,28.30
2018-07-09T12:56:35.822Z,28.00
2018-07-09T13:01:30.913Z,27.90
2018-07-09T13:06:25.948Z,27.90
2018-07-09T13:11:20.934Z,27.80
2018-07-09T13:16:15.929Z,27.80
2018-07-09T13:21:10.969Z,27.70
2018-07-09T13:26:06.134Z,27.60
2018-07-09T13:31:02.339Z,27.50
2018-07-09T13:35:57.389Z,27.70
2018-07-09T13:40:52.285Z,27.70
2018-07-09T13:51:10.557Z,27.60
2018-07-09T13:56:05.819Z,27.70
2018-07-09T14:01:00.840Z,27.50
2018-07-09T14:05:55.948Z,27.50
2018-07-09T14:11:13.203Z,27.20
2018-07-09T14:16:09.144Z,27.10
2018-07-09T14:21:06.536Z,26.90
2018-07-09T14:26:01.508Z,27.00
2018-07-09T14:30:56.383Z,27.00
2018-07-09T14:35:51.260Z,27.10
2018-07-09T14:40:46.493Z,27.40
2018-07-09T14:51:00.057Z,27.40
2018-07-09T14:55:55.488Z,27.50
2018-07-09T15:00:51.033Z,27.50
2018-07-09T15:05:47.245Z,27.40
2018-07-09T15:10:43.611Z,27.20
2018-07-09T15:15:41.921Z,27.40
2018-07-09T15:20:37.042Z,27.50
2018-07-09T15:25:32.609Z,27.40
2018-07-09T15:30:29.710Z,27.40
2018-07-09T15:35:24.973Z,27.30
2018-07-09T15:40:20.025Z,27.30
2018-07-09T15:54:38.855Z,27.40
2018-07-09T15:59:34.147Z,27.40
2018-07-09T16:04:31.187Z,27.30
2018-07-09T16:09:31.075Z,27.20
2018-07-09T16:14:56.678Z,27.30
2018-07-09T16:20:59.427Z,27.40
2018-07-09T16:39:08.018Z,27.50
2018-07-09T16:44:25.368Z,27.30
2018-07-09T16:55:08.461Z,26.90
2018-07-09T17:05:58.632Z,26.90
2018-07-09T17:11:24.710Z,26.80
2018-07-09T17:34:47.381Z,26.80
2018-07-09T17:39:42.589Z,26.90
2018-07-09T17:44:37.537Z,26.80
2018-07-09T17:49:32.425Z,26.50
2018-07-09T17:54:27.654Z,26.20
2018-07-09T17:59:22.469Z,26.00
2018-07-09T18:04:22.456Z,25.80
2018-07-09T18:09:17.859Z,25.70
2018-07-09T18:14:12.863Z,25.60
2018-07-09T18:19:17.500Z,25.50
2018-07-09T18:24:19.942Z,25.30
2018-07-09T18:29:15.199Z,25.10
2018-07-09T18:34:11.855Z,25.00
2018-07-09T18:39:12.278Z,25.00
2018-07-09T18:44:09.478Z,24.70
2018-07-09T18:54:46.727Z,24.60
2018-07-09T18:59:41.401Z,24.50
2018-07-09T19:04:36.136Z,24.40
2018-07-09T19:14:34.426Z,24.10
2018-07-09T19:19:45.763Z,24.00
2018-07-09T19:24:38.576Z,24.00
2018-07-09T19:29:31.420Z,23.90
2018-07-09T19:34:24.227Z,23.80
2018-07-09T19:39:17.044Z,23.70
2018-07-09T19:44:09.867Z,23.60
2018-07-09T19:49:02.713Z,23.60
2018-07-09T19:53:55.527Z,23.60
2018-07-09T19:58:48.359Z,23.60
2018-07-09T20:03:41.159Z,23.60
2018-07-09T20:08:39.196Z,23.40
2018-07-09T20:14:01.884Z,23.20
2018-07-09T20:18:54.704Z,22.90
2018-07-09T20:23:48.542Z,22.70
2018-07-09T20:28:41.356Z,22.60
2018-07-09T20:33:34.161Z,22.40
2018-07-09T20:38:26.979Z,22.30
2018-07-09T20:43:19.791Z,22.00
2018-07-09T20:48:12.611Z,22.00
2018-07-09T20:53:05.417Z,21.90
2018-07-09T20:57:58.223Z,22.00
2018-07-09T21:02:51.029Z,21.80
2018-07-09T21:07:43.864Z,21.70
2018-07-09T21:17:34.847Z,21.60
2018-07-09T21:22:27.682Z,21.30
2018-07-09T21:32:13.572Z,21.10
2018-07-09T21:37:06.405Z,21.00
2018-07-09T21:41:59.220Z,21.10
2018-07-09T21:46:52.015Z,21.00
2018-07-09T21:51:44.831Z,21.10
2018-07-09T21:56:37.645Z,21.20
2018-07-09T22:01:30.452Z,21.10
2018-07-09T22:06:23.299Z,21.10
2018-07-09T22:11:16.112Z,21.10
2018-07-09T22:16:08.923Z,21.10
2018-07-09T22:21:01.735Z,21.00
2018-07-09T22:25:54.533Z,21.00
2018-07-09T22:30:49.212Z,21.00
2018-07-09T22:35:43.850Z,21.00
2018-07-09T22:40:38.483Z,20.90
2018-07-09T22:45:33.141Z,20.90
2018-07-09T22:50:27.847Z,20.80
2018-07-09T22:56:07.816Z,20.50
2018-07-09T23:01:03.042Z,20.30
2018-07-09T23:05:57.797Z,20.10
2018-07-09T23:13:36.583Z,20.00
2018-07-09T23:18:59.725Z,19.90
2018-07-09T23:23:52.536Z,19.90
2018-07-09T23:28:45.354Z,19.90
2018-07-09T23:33:38.163Z,19.70
2018-07-09T23:38:30.970Z,19.50
2018-07-09T23:48:16.880Z,19.40
2018-07-09T23:53:09.722Z,19.40
2018-07-09T23:58:20.887Z,19.50
